RCSM weather

Riyuetan (Sun Moon Lake) Heliport
Riyuetan, Nantou County, Taiwan

Public forecast

Using degrees Celsius for public forecast. Weather courtesy of forecast.io.

Closest aviation weather report (METAR) to Riyuetan (Sun Moon Lake) Heliport

Closest report is Taichung Ching Chuang Kang Airport, 28.8 nm (53.3 km) NW. Retrieved 2019/10/19 08:30 UTC (1 minute ago):

RCMQ 190830Z 02019KT 9999 FEW012 SCT030 24/18 Q1015 NOSIG RMK A2999

Closest aviation forecast (TAF) to Riyuetan (Sun Moon Lake) Heliport

Closest forecast is Taichung Ching Chuang Kang Airport, 28.8 nm (53.3 km) NW. Retrieved 2019/10/19 06:21 UTC (2 hours ago):

TAF RCMQ 190500Z 1906/2006 03016KT 9999 FEW012 SCT040 TX27/1906Z TN21/1921Z BECMG 1911/1914 02010KT FEW012 BKN040 BECMG 1923/2002 FEW012 SCT060